createdAt,value
2023-02-06T00:01:00.083Z,60.53
2023-02-06T00:06:01.806Z,64.13
2023-02-06T00:11:08.522Z,66.30
2023-02-06T00:16:33.224Z,63.66
2023-02-06T00:21:34.940Z,60.65
2023-02-06T00:26:36.774Z,57.40
2023-02-06T00:31:40.864Z,56.73
2023-02-06T00:36:42.678Z,61.49
2023-02-06T00:41:45.122Z,67.74
2023-02-06T00:46:46.995Z,63.32
2023-02-06T00:51:48.905Z,58.92
2023-02-06T00:56:50.634Z,50.77
2023-02-06T01:01:52.360Z,52.28
2023-02-06T01:06:53.998Z,54.81
2023-02-06T01:11:56.666Z,53.69
2023-02-06T01:16:58.314Z,56.39
2023-02-06T01:22:00.002Z,55.79
2023-02-06T01:27:01.652Z,59.22
2023-02-06T01:32:03.501Z,60.29
2023-02-06T01:37:05.257Z,65.10
2023-02-06T01:42:06.959Z,64.84
2023-02-06T01:47:10.960Z,61.70
2023-02-06T01:52:21.561Z,61.40
2023-02-06T01:57:25.593Z,61.08
2023-02-06T02:02:28.708Z,60.25
2023-02-06T02:07:35.661Z,57.22
2023-02-06T02:12:37.366Z,56.19
2023-02-06T02:17:56.040Z,57.18
2023-02-06T02:23:21.338Z,58.68
2023-02-06T02:28:38.187Z,59.82
2023-02-06T02:34:09.929Z,62.15
2023-02-06T02:39:29.930Z,66.31
2023-02-06T02:45:02.089Z,65.88
2023-02-06T02:50:05.515Z,63.31
2023-02-06T02:55:16.205Z,62.58
2023-02-06T03:00:20.596Z,61.67
2023-02-06T03:05:25.100Z,61.42
2023-02-06T03:11:03.933Z,61.37
2023-02-06T03:16:11.453Z,61.52
2023-02-06T03:21:17.741Z,61.03
2023-02-06T03:26:23.820Z,60.31
2023-02-06T03:32:15.103Z,57.85
2023-02-06T03:37:17.293Z,57.56
2023-02-06T03:42:21.814Z,61.04
2023-02-06T03:47:25.678Z,66.30
2023-02-06T03:52:33.372Z,65.59
2023-02-06T03:57:37.333Z,63.36
2023-02-06T04:02:40.691Z,62.61
2023-02-06T04:07:42.736Z,61.64
2023-02-06T04:12:44.469Z,60.03
2023-02-06T04:17:58.758Z,60.61
2023-02-06T04:23:01.504Z,60.69
2023-02-06T04:28:04.005Z,60.46
2023-02-06T04:33:05.829Z,60.26
2023-02-06T04:38:07.541Z,59.95
2023-02-06T04:43:09.191Z,61.10
2023-02-06T04:48:10.846Z,60.26
2023-02-06T04:53:12.426Z,57.29
2023-02-06T04:58:14.099Z,57.89
2023-02-06T05:03:15.817Z,60.04
2023-02-06T05:08:17.660Z,63.09
2023-02-06T05:13:19.957Z,65.72
2023-02-06T05:18:21.972Z,65.13
2023-02-06T05:23:23.662Z,64.46
2023-02-06T05:28:34.674Z,64.92
2023-02-06T05:33:36.765Z,64.05
2023-02-06T05:38:38.542Z,63.31
2023-02-06T05:43:40.346Z,62.90
2023-02-06T05:48:42.256Z,62.40
2023-02-06T05:53:43.965Z,62.91
2023-02-06T05:58:45.718Z,62.72
2023-02-06T06:03:47.455Z,63.17
2023-02-06T06:08:49.243Z,62.20
2023-02-06T06:13:50.870Z,61.72
2023-02-06T06:18:52.590Z,61.98
2023-02-06T06:23:54.257Z,62.82
2023-02-06T06:28:56.917Z,62.79
2023-02-06T06:33:58.659Z,62.41
2023-02-06T06:39:00.390Z,62.65
2023-02-06T06:44:10.389Z,61.94
2023-02-06T06:49:12.057Z,61.03
2023-02-06T06:54:15.246Z,60.18
2023-02-06T06:59:16.976Z,58.22
2023-02-06T07:04:20.991Z,56.61
2023-02-06T07:09:23.208Z,57.52
2023-02-06T07:14:25.049Z,59.05
2023-02-06T07:19:26.758Z,60.65
2023-02-06T07:24:28.497Z,64.18
2023-02-06T07:29:30.210Z,65.93
2023-02-06T07:34:32.336Z,65.07
2023-02-06T07:39:34.035Z,64.08
2023-02-06T07:44:35.760Z,63.27
2023-02-06T07:49:37.374Z,62.26
2023-02-06T07:54:39.106Z,62.00
2023-02-06T07:59:40.728Z,61.27
2023-02-06T08:04:42.643Z,60.82
2023-02-06T08:09:44.435Z,59.41
2023-02-06T08:14:46.056Z,58.35
2023-02-06T08:19:49.074Z,59.67
2023-02-06T08:24:50.912Z,59.58
2023-02-06T08:29:52.594Z,60.27
2023-02-06T08:34:54.264Z,58.85
2023-02-06T08:39:55.861Z,59.41
2023-02-06T08:44:57.562Z,59.33
2023-02-06T08:50:01.502Z,60.12
2023-02-06T08:55:06.436Z,60.39
2023-02-06T09:00:09.992Z,61.00
2023-02-06T09:05:11.678Z,60.74
2023-02-06T09:10:26.745Z,61.81
2023-02-06T09:15:29.439Z,60.20
2023-02-06T09:20:31.100Z,57.06
2023-02-06T09:25:32.682Z,58.42
2023-02-06T09:30:34.443Z,61.51
2023-02-06T09:35:36.470Z,60.54
2023-02-06T09:40:38.716Z,59.90
2023-02-06T09:45:41.137Z,58.79
2023-02-06T09:51:15.401Z,59.47
2023-02-06T09:56:38.579Z,59.27
2023-02-06T10:01:49.324Z,59.38
2023-02-06T10:07:04.217Z,58.64
2023-02-06T10:12:29.984Z,59.20
2023-02-06T10:17:36.957Z,57.15
2023-02-06T10:23:04.719Z,54.64
2023-02-06T10:28:21.825Z,49.87
2023-02-06T10:33:47.080Z,52.09
2023-02-06T10:39:01.247Z,51.50
2023-02-06T10:44:28.921Z,52.42
2023-02-06T10:49:43.870Z,53.05
2023-02-06T10:54:52.376Z,53.81
2023-02-06T10:59:59.987Z,54.72
2023-02-06T11:05:13.885Z,52.98
2023-02-06T11:10:19.048Z,55.75
2023-02-06T11:15:32.799Z,55.45
2023-02-06T11:20:38.203Z,49.93
2023-02-06T11:25:42.237Z,52.48
2023-02-06T11:30:59.399Z,50.79
2023-02-06T11:36:02.254Z,48.85
2023-02-06T11:41:17.664Z,50.08
2023-02-06T11:46:28.317Z,54.92
2023-02-06T11:51:48.381Z,51.09
2023-02-06T11:57:23.995Z,52.27
2023-02-06T12:02:35.576Z,54.74
2023-02-06T12:07:42.265Z,51.54
2023-02-06T12:12:53.152Z,51.43
2023-02-06T12:18:03.162Z,52.80
2023-02-06T12:23:31.546Z,57.20
2023-02-06T12:28:55.874Z,57.16
2023-02-06T12:34:14.720Z,53.74
2023-02-06T12:39:22.865Z,57.01
2023-02-06T12:44:35.903Z,56.55
2023-02-06T12:50:23.144Z,53.27
2023-02-06T12:55:31.035Z,52.30
2023-02-06T13:00:45.005Z,54.21
2023-02-06T13:05:50.051Z,55.09
2023-02-06T13:11:04.830Z,52.96
2023-02-06T13:16:08.121Z,53.58
2023-02-06T13:21:20.064Z,55.19
2023-02-06T13:26:56.271Z,55.56
2023-02-06T13:32:18.657Z,55.70
2023-02-06T13:37:35.526Z,55.96
2023-02-06T13:42:54.124Z,57.16
2023-02-06T13:48:31.601Z,57.30
2023-02-06T13:53:52.296Z,57.82
2023-02-06T13:58:57.795Z,57.67
2023-02-06T14:04:15.190Z,57.35
2023-02-06T14:09:45.838Z,56.51
2023-02-06T14:15:00.641Z,59.03
2023-02-06T14:20:29.333Z,59.86
2023-02-06T14:25:55.786Z,60.64
2023-02-06T14:31:15.886Z,60.56
2023-02-06T14:36:47.909Z,58.85
2023-02-06T14:41:49.697Z,57.82
2023-02-06T14:46:51.896Z,58.53
2023-02-06T14:51:53.842Z,59.99
2023-02-06T14:56:57.469Z,61.32
2023-02-06T15:02:11.403Z,60.89
2023-02-06T15:07:27.682Z,60.90
2023-02-06T15:12:30.188Z,61.78
2023-02-06T15:17:34.062Z,62.36
2023-02-06T15:22:35.884Z,62.62
2023-02-06T15:27:38.809Z,62.13
2023-02-06T15:32:40.687Z,61.81
2023-02-06T15:37:42.507Z,60.70
2023-02-06T15:42:46.054Z,61.03
2023-02-06T15:47:50.189Z,59.97
2023-02-06T15:52:52.216Z,58.23
2023-02-06T15:57:56.310Z,58.56
2023-02-06T16:03:05.075Z,59.81
2023-02-06T16:08:30.968Z,60.49
2023-02-06T16:13:33.367Z,61.71
2023-02-06T16:18:42.225Z,65.60
2023-02-06T16:24:03.442Z,66.03
2023-02-06T16:29:20.832Z,65.03
2023-02-06T16:34:31.581Z,64.89
2023-02-06T16:39:33.342Z,64.53
2023-02-06T16:44:44.754Z,63.95
2023-02-06T16:49:52.319Z,63.71
2023-02-06T16:54:56.012Z,63.99
2023-02-06T16:59:59.298Z,64.18
2023-02-06T17:05:01.248Z,64.31
2023-02-06T17:10:03.654Z,64.50
2023-02-06T17:15:06.546Z,64.34
2023-02-06T17:20:26.697Z,64.64
2023-02-06T17:25:29.054Z,64.82
2023-02-06T17:30:30.848Z,64.68
2023-02-06T17:35:36.572Z,63.69
2023-02-06T17:40:40.774Z,63.26
2023-02-06T17:45:43.062Z,62.46
2023-02-06T17:50:45.194Z,63.39
2023-02-06T17:55:47.519Z,62.63
2023-02-06T18:00:50.286Z,63.65
2023-02-06T18:05:59.801Z,63.30
2023-02-06T18:11:08.473Z,62.59
2023-02-06T18:16:19.826Z,63.61
2023-02-06T18:21:24.475Z,62.80
2023-02-06T18:26:27.243Z,63.59
2023-02-06T18:31:33.296Z,64.53
2023-02-06T18:36:36.907Z,65.31
2023-02-06T18:41:57.687Z,64.45
2023-02-06T18:46:59.592Z,65.62
2023-02-06T18:52:01.573Z,66.53
2023-02-06T18:57:04.863Z,65.73
2023-02-06T19:02:09.930Z,65.45
2023-02-06T19:07:21.998Z,65.75
2023-02-06T19:12:24.005Z,67.68
2023-02-06T19:17:27.264Z,68.28
2023-02-06T19:22:29.305Z,66.56
2023-02-06T19:27:31.040Z,64.45
2023-02-06T19:32:32.925Z,66.31
2023-02-06T19:37:34.967Z,66.66
2023-02-06T19:42:36.945Z,66.46
2023-02-06T19:47:38.704Z,65.69
2023-02-06T19:52:40.591Z,64.92
2023-02-06T19:57:42.775Z,64.14
2023-02-06T20:02:44.501Z,63.33
2023-02-06T20:07:46.180Z,61.42
2023-02-06T20:12:48.327Z,63.57
2023-02-06T20:17:51.834Z,64.68
2023-02-06T20:22:53.611Z,66.08
2023-02-06T20:27:56.633Z,66.77
2023-02-06T20:32:58.584Z,66.65
2023-02-06T20:38:00.463Z,67.14
2023-02-06T20:43:02.448Z,68.02
2023-02-06T20:48:04.318Z,70.15
2023-02-06T20:53:05.966Z,70.79
2023-02-06T20:58:07.929Z,71.13
2023-02-06T21:03:09.703Z,71.43
2023-02-06T21:08:11.821Z,70.62
2023-02-06T21:13:13.538Z,70.48
2023-02-06T21:18:15.193Z,70.85
2023-02-06T21:23:17.412Z,71.93
2023-02-06T21:28:20.079Z,72.06
2023-02-06T21:33:22.039Z,69.67
2023-02-06T21:38:24.712Z,68.85
2023-02-06T21:43:26.403Z,68.02
2023-02-06T21:48:28.437Z,67.63
2023-02-06T21:53:30.100Z,67.42
2023-02-06T21:58:31.785Z,68.06
2023-02-06T22:03:34.329Z,68.26
2023-02-06T22:08:41.527Z,69.60
2023-02-06T22:13:49.518Z,71.05
2023-02-06T22:18:51.644Z,69.32
2023-02-06T22:23:56.800Z,68.36
2023-02-06T22:28:59.408Z,66.81
2023-02-06T22:34:02.918Z,66.42
2023-02-06T22:39:08.548Z,64.02
2023-02-06T22:44:16.473Z,61.94
2023-02-06T22:49:20.418Z,59.22
2023-02-06T22:54:22.104Z,59.41
2023-02-06T22:59:25.475Z,56.80
2023-02-06T23:04:30.088Z,56.79
2023-02-06T23:09:34.773Z,58.72
2023-02-06T23:14:36.527Z,57.21
2023-02-06T23:19:39.666Z,58.55
2023-02-06T23:24:41.737Z,60.32
2023-02-06T23:29:43.411Z,59.42
2023-02-06T23:34:45.104Z,60.11
2023-02-06T23:39:47.169Z,60.89
2023-02-06T23:44:49.036Z,61.21
2023-02-06T23:49:50.738Z,62.24
2023-02-06T23:54:52.463Z,60.62
2023-02-06T23:59:54.210Z,62.23
